Time;durP1;ratioP1;P1;durP2;ratioP2;P2;SDS_P1;SDS_P2;PMS_P1;PMS_P2;Temp;Humidity;BMP_temperature;BMP_pressure;BME280_temperature;BME280_humidity;BME280_pressure;Samples;Min_cycle;Max_cycle;Signal;HPM_P1;HPM_P2
2022/05/17 00:00:55;;;;;;;3.80;1.88;;;;;;;;;;4944578;28;20045;-70
2022/05/17 00:03:21;;;;;;;8.77;2.40;;;;;;;;;;4951903;28;20050;-68
2022/05/17 00:05:47;;;;;;;5.47;1.90;;;;;;;;;;4942680;28;20050;-68
2022/05/17 00:08:14;;;;;;;6.15;2.22;;;;;;;;;;4948337;28;20027;-70
2022/05/17 00:10:40;;;;;;;2.28;1.63;;;;;;;;;;4942327;28;20050;-67
2022/05/17 00:13:06;;;;;;;7.93;1.98;;;;;;;;;;4943545;28;20525;-68
2022/05/17 00:15:33;;;;;;;6.60;2.45;;;;;;;;;;4945196;28;20031;-69
2022/05/17 00:18:00;;;;;;;4.95;2.15;;;;;;;;;;4943524;28;20027;-68
2022/05/17 00:20:26;;;;;;;5.57;1.67;;;;;;;;;;4943128;28;20150;-68
2022/05/17 00:22:52;;;;;;;3.72;2.15;;;;;;;;;;4943523;28;20039;-68
2022/05/17 00:25:20;;;;;;;3.20;2.38;;;;;;;;;;4943053;28;20730;-68
2022/05/17 00:27:45;;;;;;;4.10;2.33;;;;;;;;;;4942795;28;20051;-68
2022/05/17 00:30:12;;;;;;;5.60;2.33;;;;;;;;;;4927085;28;20120;-68
2022/05/17 00:32:37;;;;;;;5.60;2.10;;;;;;;;;;4946649;28;20193;-68
2022/05/17 00:35:04;;;;;;;7.25;2.75;;;;;;;;;;4943109;28;20582;-68
2022/05/17 00:37:29;;;;;;;5.80;2.13;;;;;;;;;;4942589;28;20043;-68
2022/05/17 00:39:55;;;;;;;4.60;2.30;;;;;;;;;;4943677;28;20058;-68
2022/05/17 00:42:20;;;;;;;3.45;2.28;;;;;;;;;;4942563;28;20500;-68
2022/05/17 00:44:46;;;;;;;4.95;2.30;;;;;;;;;;4925040;28;20043;-68
2022/05/17 00:47:22;;;;;;;10.35;2.70;;;;;;;;;;4944535;28;20107;-68
2022/05/17 00:50:10;;;;;;;8.48;2.58;;;;;;;;;;4944159;28;20043;-68
2022/05/17 00:52:43;;;;;;;5.95;2.60;;;;;;;;;;4942561;28;20058;-68
2022/05/17 00:55:19;;;;;;;2.47;2.20;;;;;;;;;;4942241;28;20035;-69
2022/05/17 00:57:48;;;;;;;6.20;2.45;;;;;;;;;;4942229;28;20035;-68
2022/05/17 01:00:16;;;;;;;6.47;2.40;;;;;;;;;;4944669;28;20131;-68
2022/05/17 01:02:49;;;;;;;7.47;2.75;;;;;;;;;;4943104;28;20039;-68
2022/05/17 01:05:17;;;;;;;6.03;2.55;;;;;;;;;;4942862;28;20543;-68
2022/05/17 01:07:49;;;;;;;4.15;2.35;;;;;;;;;;4943355;28;20070;-67
2022/05/17 01:10:14;;;;;;;5.25;2.28;;;;;;;;;;4942407;28;20032;-68
2022/05/17 01:12:40;;;;;;;9.40;2.67;;;;;;;;;;4942453;28;20042;-68
2022/05/17 01:15:08;;;;;;;9.90;3.08;;;;;;;;;;4940303;28;20035;-68
2022/05/17 01:17:38;;;;;;;7.43;2.60;;;;;;;;;;4943510;28;20039;-68
2022/05/17 01:20:07;;;;;;;7.97;2.70;;;;;;;;;;4942321;28;20035;-68
2022/05/17 01:22:32;;;;;;;4.75;2.33;;;;;;;;;;4934448;28;20070;-68
2022/05/17 01:24:58;;;;;;;4.53;2.60;;;;;;;;;;4947186;28;20074;-68
2022/05/17 01:27:32;;;;;;;4.05;2.28;;;;;;;;;;4945073;28;20063;-67
2022/05/17 01:29:58;;;;;;;8.70;2.83;;;;;;;;;;4942118;28;20473;-68
2022/05/17 01:32:23;;;;;;;7.22;2.63;;;;;;;;;;4944185;28;20062;-68
2022/05/17 01:34:49;;;;;;;3.65;2.38;;;;;;;;;;4942634;28;20053;-68
2022/05/17 01:37:16;;;;;;;3.35;2.55;;;;;;;;;;4946665;28;20047;-68
2022/05/17 01:39:42;;;;;;;9.15;2.70;;;;;;;;;;4945343;28;20118;-68
2022/05/17 01:42:10;;;;;;;4.85;2.70;;;;;;;;;;4945486;28;20035;-68
2022/05/17 01:44:37;;;;;;;6.60;2.50;;;;;;;;;;4946292;28;20047;-68
2022/05/17 01:47:02;;;;;;;3.70;2.40;;;;;;;;;;4948405;28;20074;-68
2022/05/17 01:49:28;;;;;;;4.68;2.80;;;;;;;;;;4946925;28;20437;-68
2022/05/17 01:51:53;;;;;;;8.05;3.50;;;;;;;;;;4944653;28;20046;-69
2022/05/17 01:54:18;;;;;;;6.45;2.88;;;;;;;;;;4946002;28;20042;-68
2022/05/17 01:56:44;;;;;;;7.00;2.70;;;;;;;;;;4946219;28;20062;-69
2022/05/17 01:59:09;;;;;;;6.57;2.55;;;;;;;;;;4946246;28;20043;-68
2022/05/17 02:01:35;;;;;;;4.28;2.60;;;;;;;;;;4945327;28;20512;-68
2022/05/17 02:04:01;;;;;;;3.92;2.80;;;;;;;;;;4945809;28;20042;-68
2022/05/17 02:06:26;;;;;;;3.83;2.67;;;;;;;;;;4945897;28;20051;-68
2022/05/17 02:08:51;;;;;;;5.60;3.17;;;;;;;;;;4945822;28;20039;-69
2022/05/17 02:11:17;;;;;;;5.50;2.35;;;;;;;;;;4944615;28;20693;-68
2022/05/17 02:13:46;;;;;;;4.63;2.53;;;;;;;;;;4944829;28;20067;-68
2022/05/17 02:16:13;;;;;;;6.38;2.80;;;;;;;;;;4947781;28;20502;-68
2022/05/17 02:18:39;;;;;;;7.13;2.70;;;;;;;;;;4945861;28;20504;-68
2022/05/17 02:21:06;;;;;;;10.68;2.85;;;;;;;;;;4945348;28;20065;-68
2022/05/17 02:23:32;;;;;;;12.32;3.00;;;;;;;;;;4944045;28;20136;-68
2022/05/17 02:25:57;;;;;;;6.25;2.97;;;;;;;;;;4949795;28;20105;-68
2022/05/17 02:28:23;;;;;;;4.88;3.08;;;;;;;;;;4949305;28;20051;-68
2022/05/17 02:30:49;;;;;;;7.82;2.92;;;;;;;;;;4947639;28;20055;-69
2022/05/17 02:33:16;;;;;;;7.20;3.22;;;;;;;;;;4945880;28;20066;-69
2022/05/17 02:35:41;;;;;;;10.65;3.40;;;;;;;;;;4953258;28;20665;-69
2022/05/17 02:38:07;;;;;;;2.78;2.40;;;;;;;;;;4950920;28;20921;-68
2022/05/17 02:40:34;;;;;;;5.53;2.80;;;;;;;;;;4947278;28;20032;-68
2022/05/17 02:43:00;;;;;;;6.43;2.83;;;;;;;;;;4944904;28;20039;-68
2022/05/17 02:45:26;;;;;;;14.00;2.95;;;;;;;;;;4946531;28;20062;-69
2022/05/17 02:47:52;;;;;;;4.88;2.88;;;;;;;;;;4944771;28;20118;-69
2022/05/17 02:50:18;;;;;;;4.97;2.80;;;;;;;;;;4946383;28;20056;-68
2022/05/17 02:52:44;;;;;;;8.10;2.85;;;;;;;;;;4944801;28;20039;-68
2022/05/17 02:55:10;;;;;;;4.50;2.95;;;;;;;;;;4943445;28;20030;-67
2022/05/17 02:57:36;;;;;;;5.68;2.80;;;;;;;;;;4929215;28;20123;-68
2022/05/17 03:00:06;;;;;;;5.70;3.00;;;;;;;;;;4944833;28;20110;-68
2022/05/17 03:02:32;;;;;;;3.72;2.80;;;;;;;;;;4944005;28;20127;-68
2022/05/17 03:04:57;;;;;;;8.18;3.03;;;;;;;;;;4944510;28;20125;-68
2022/05/17 03:07:23;;;;;;;7.22;3.40;;;;;;;;;;4944526;28;20047;-68
2022/05/17 03:09:48;;;;;;;8.02;3.05;;;;;;;;;;4944719;28;20081;-68
2022/05/17 03:12:14;;;;;;;3.47;2.47;;;;;;;;;;4944515;28;20098;-68
2022/05/17 03:14:39;;;;;;;6.63;2.88;;;;;;;;;;4944644;28;20993;-68
2022/05/17 03:17:11;;;;;;;7.50;3.10;;;;;;;;;;4945956;28;20400;-68
2022/05/17 03:19:36;;;;;;;;;;;;;;;;;;4944607;28;20544;-68
2022/05/17 03:22:02;;;;;;;6.50;3.53;;;;;;;;;;4940834;28;20037;-67
2022/05/17 03:24:27;;;;;;;5.40;2.78;;;;;;;;;;4944202;28;20504;-68
2022/05/17 03:26:53;;;;;;;6.20;3.55;;;;;;;;;;4945604;28;20035;-68
2022/05/17 03:29:18;;;;;;;8.00;3.17;;;;;;;;;;4944420;28;20532;-68
2022/05/17 03:31:44;;;;;;;5.55;3.25;;;;;;;;;;4943092;28;20043;-68
2022/05/17 03:34:09;;;;;;;11.63;3.25;;;;;;;;;;4943570;28;20034;-68
2022/05/17 03:36:35;;;;;;;5.93;3.25;;;;;;;;;;4926930;28;20636;-68
2022/05/17 03:39:00;;;;;;;3.30;3.00;;;;;;;;;;4943574;28;20039;-68
2022/05/17 03:41:25;;;;;;;8.30;3.33;;;;;;;;;;4942549;28;20050;-68
2022/05/17 03:43:51;;;;;;;4.80;2.75;;;;;;;;;;4944326;28;20071;-68
2022/05/17 03:46:16;;;;;;;6.47;3.42;;;;;;;;;;4947679;28;20575;-68
2022/05/17 03:48:42;;;;;;;7.68;3.47;;;;;;;;;;4944523;28;20035;-68
2022/05/17 03:51:13;;;;;;;8.75;3.80;;;;;;;;;;4949523;28;20035;-68
2022/05/17 03:53:39;;;;;;;8.02;3.20;;;;;;;;;;4944088;28;20443;-68
2022/05/17 03:56:04;;;;;;;6.25;3.50;;;;;;;;;;4943864;28;20035;-68
2022/05/17 03:58:30;;;;;;;14.40;3.60;;;;;;;;;;4943083;28;20070;-68
2022/05/17 04:00:55;;;;;;;7.30;3.67;;;;;;;;;;4944953;28;20035;-68
2022/05/17 04:03:21;;;;;;;8.45;3.70;;;;;;;;;;4942927;28;20046;-68
2022/05/17 04:05:46;;;;;;;7.95;3.97;;;;;;;;;;4943738;28;21146;-68
2022/05/17 04:08:11;;;;;;;4.88;2.90;;;;;;;;;;4943447;28;20027;-69
2022/05/17 04:10:37;;;;;;;4.88;3.03;;;;;;;;;;4943106;28;20047;-68
2022/05/17 04:13:04;;;;;;;15.05;3.10;;;;;;;;;;4942295;28;20031;-68
2022/05/17 04:15:30;;;;;;;8.27;3.80;;;;;;;;;;4945436;28;20089;-68
2022/05/17 04:17:55;;;;;;;7.03;3.28;;;;;;;;;;4943121;28;20039;-68
2022/05/17 04:20:22;;;;;;;8.85;3.20;;;;;;;;;;4943732;28;20051;-68
2022/05/17 04:22:50;;;;;;;11.10;3.42;;;;;;;;;;4942648;28;20066;-68
2022/05/17 04:25:17;;;;;;;5.93;3.17;;;;;;;;;;4927692;28;20447;-70
2022/05/17 04:27:43;;;;;;;7.50;3.28;;;;;;;;;;4942224;28;20074;-68
2022/05/17 04:30:09;;;;;;;3.80;2.95;;;;;;;;;;4943181;28;20057;-67
2022/05/17 04:32:35;;;;;;;4.47;3.15;;;;;;;;;;4942747;28;20047;-67
2022/05/17 04:35:01;;;;;;;7.18;3.10;;;;;;;;;;4942274;28;20035;-68
2022/05/17 04:37:28;;;;;;;5.70;3.00;;;;;;;;;;4942474;28;20043;-67
2022/05/17 04:39:53;;;;;;;5.32;3.00;;;;;;;;;;4942651;28;20046;-68
2022/05/17 04:42:19;;;;;;;6.35;3.30;;;;;;;;;;4950930;28;20043;-68
2022/05/17 04:44:45;;;;;;;11.10;3.33;;;;;;;;;;4943257;28;20515;-68
2022/05/17 04:47:11;;;;;;;5.65;3.00;;;;;;;;;;4943802;28;20070;-68
2022/05/17 04:49:37;;;;;;;7.10;3.70;;;;;;;;;;4944563;28;20054;-68
2022/05/17 04:52:03;;;;;;;4.80;3.10;;;;;;;;;;4942506;28;20034;-71
2022/05/17 04:54:29;;;;;;;4.60;3.00;;;;;;;;;;4942550;28;20114;-67
2022/05/17 04:56:54;;;;;;;8.68;3.47;;;;;;;;;;4943947;28;20905;-67
2022/05/17 04:59:20;;;;;;;4.28;3.30;;;;;;;;;;4943072;28;20039;-69
2022/05/17 05:01:46;;;;;;;8.43;3.22;;;;;;;;;;4945442;28;20062;-68
2022/05/17 05:04:11;;;;;;;8.85;3.10;;;;;;;;;;4952396;28;20488;-68
2022/05/17 05:06:37;;;;;;;5.57;3.00;;;;;;;;;;4943953;28;20035;-68
2022/05/17 05:09:04;;;;;;;7.13;3.25;;;;;;;;;;4942425;28;20198;-69
2022/05/17 05:11:29;;;;;;;11.70;3.65;;;;;;;;;;4945896;28;20939;-68
2022/05/17 05:13:55;;;;;;;8.38;3.25;;;;;;;;;;4945841;28;20122;-68
2022/05/17 05:16:20;;;;;;;7.00;3.15;;;;;;;;;;4946197;28;20043;-68
2022/05/17 05:18:46;;;;;;;5.95;3.38;;;;;;;;;;4943952;28;20047;-68
2022/05/17 05:21:14;;;;;;;4.18;3.35;;;;;;;;;;4943098;28;20069;-68
2022/05/17 05:23:41;;;;;;;7.03;3.85;;;;;;;;;;4943967;28;20042;-68
2022/05/17 05:26:08;;;;;;;10.38;3.47;;;;;;;;;;4942934;28;20075;-68
2022/05/17 05:28:35;;;;;;;6.25;2.95;;;;;;;;;;4943753;28;20522;-68
2022/05/17 05:31:01;;;;;;;6.40;2.95;;;;;;;;;;4945642;28;20158;-68
2022/05/17 05:33:29;;;;;;;6.57;3.00;;;;;;;;;;4945447;28;20133;-68
2022/05/17 05:35:55;;;;;;;8.88;3.10;;;;;;;;;;4944109;28;20034;-68
2022/05/17 05:38:21;;;;;;;8.55;3.35;;;;;;;;;;4945424;28;20043;-68
2022/05/17 05:40:46;;;;;;;7.38;3.00;;;;;;;;;;4944323;28;20043;-68
2022/05/17 05:43:12;;;;;;;4.00;2.78;;;;;;;;;;4944226;28;20035;-68
2022/05/17 05:45:37;;;;;;;8.82;2.58;;;;;;;;;;4946020;28;20567;-68
2022/05/17 05:48:03;;;;;;;6.30;3.25;;;;;;;;;;4945742;28;20074;-68
2022/05/17 05:50:29;;;;;;;7.57;3.00;;;;;;;;;;4947657;28;20039;-67
2022/05/17 05:53:12;;;;;;;8.48;2.92;;;;;;;;;;4945871;28;20086;-69
2022/05/17 05:55:38;;;;;;;9.93;3.05;;;;;;;;;;4945669;28;20055;-70
2022/05/17 05:58:05;;;;;;;7.07;3.00;;;;;;;;;;4945073;28;20673;-70
2022/05/17 06:00:31;;;;;;;6.55;2.80;;;;;;;;;;4948457;28;20027;-70
2022/05/17 06:02:57;;;;;;;3.97;2.85;;;;;;;;;;4946447;28;20609;-70
2022/05/17 06:05:25;;;;;;;5.10;3.17;;;;;;;;;;4945368;28;20038;-70
2022/05/17 06:07:50;;;;;;;8.45;3.35;;;;;;;;;;4945455;28;20039;-71
2022/05/17 06:10:17;;;;;;;8.73;3.03;;;;;;;;;;4945719;28;20561;-71
2022/05/17 06:12:43;;;;;;;6.10;3.58;;;;;;;;;;4945208;28;20087;-72
2022/05/17 06:15:09;;;;;;;6.78;2.67;;;;;;;;;;4945159;28;20047;-71
2022/05/17 06:17:37;;;;;;;5.97;2.90;;;;;;;;;;4946473;28;20673;-71
2022/05/17 06:20:04;;;;;;;6.10;2.95;;;;;;;;;;4945515;28;20038;-72
2022/05/17 06:22:29;;;;;;;4.97;2.78;;;;;;;;;;4944275;28;20047;-72
2022/05/17 06:24:55;;;;;;;9.90;2.85;;;;;;;;;;4952933;28;20039;-72
2022/05/17 06:27:20;;;;;;;4.85;2.55;;;;;;;;;;4945281;28;20558;-71
2022/05/17 06:29:46;;;;;;;7.18;3.10;;;;;;;;;;4944836;28;20031;-72
2022/05/17 06:32:12;;;;;;;6.32;2.97;;;;;;;;;;4947032;28;20047;-71
2022/05/17 06:34:39;;;;;;;5.15;3.00;;;;;;;;;;4945023;28;20078;-71
2022/05/17 06:37:06;;;;;;;6.13;3.08;;;;;;;;;;4945868;28;20110;-72
2022/05/17 06:39:32;;;;;;;7.25;3.60;;;;;;;;;;4944258;28;20633;-71
2022/05/17 06:41:58;;;;;;;6.57;2.97;;;;;;;;;;4927563;28;20160;-70
2022/05/17 06:44:27;;;;;;;3.65;2.97;;;;;;;;;;4944986;28;20042;-72
2022/05/17 06:46:54;;;;;;;6.43;3.53;;;;;;;;;;4948515;28;20039;-72
2022/05/17 06:49:21;;;;;;;8.85;3.42;;;;;;;;;;4946603;28;20089;-71
2022/05/17 06:51:46;;;;;;;5.78;3.25;;;;;;;;;;4944349;28;20042;-70
2022/05/17 06:54:14;;;;;;;6.97;4.00;;;;;;;;;;4947301;28;20042;-70
2022/05/17 06:56:40;;;;;;;3.53;3.15;;;;;;;;;;4948757;28;20035;-69
2022/05/17 06:59:07;;;;;;;5.78;3.47;;;;;;;;;;4945732;28;20094;-72
2022/05/17 07:01:32;;;;;;;5.20;3.10;;;;;;;;;;4945352;28;20050;-72
2022/05/17 07:03:57;;;;;;;7.72;3.20;;;;;;;;;;4944920;28;20047;-71
2022/05/17 07:06:23;;;;;;;9.73;3.53;;;;;;;;;;4951061;28;20062;-69
2022/05/17 07:08:48;;;;;;;6.00;3.22;;;;;;;;;;4944077;28;20035;-71
2022/05/17 07:13:58;;;;;;;10.50;3.28;;;;;;;;;;4943471;28;20035;-67
2022/05/17 07:16:24;;;;;;;3.90;3.35;;;;;;;;;;4947329;28;20045;-69
2022/05/17 07:18:50;;;;;;;8.35;3.53;;;;;;;;;;4951047;28;20145;-71
2022/05/17 07:21:15;;;;;;;7.60;3.60;;;;;;;;;;4942828;28;20039;-71
2022/05/17 07:23:42;;;;;;;8.10;3.42;;;;;;;;;;4944349;28;20093;-70
2022/05/17 07:26:12;;;;;;;5.25;3.28;;;;;;;;;;4945325;28;20102;-70
2022/05/17 07:28:40;;;;;;;12.90;3.80;;;;;;;;;;4943167;28;20047;-70
2022/05/17 07:31:07;;;;;;;7.75;3.55;;;;;;;;;;4943787;28;20034;-71
2022/05/17 07:33:35;;;;;;;6.57;2.97;;;;;;;;;;4943144;28;20118;-71
2022/05/17 07:36:02;;;;;;;5.80;3.35;;;;;;;;;;4943841;28;20135;-71
2022/05/17 07:38:28;;;;;;;8.55;3.25;;;;;;;;;;4944254;28;20480;-71
2022/05/17 07:40:54;;;;;;;7.22;3.70;;;;;;;;;;4944276;28;20128;-71
2022/05/17 07:43:20;;;;;;;5.60;3.42;;;;;;;;;;4945713;28;20046;-71
2022/05/17 07:45:49;;;;;;;7.45;3.60;;;;;;;;;;4920687;28;20035;-71
2022/05/17 07:48:22;;;;;;;6.05;4.22;;;;;;;;;;4960831;28;20519;-71
2022/05/17 07:50:49;;;;;;;5.47;3.47;;;;;;;;;;4945634;28;20086;-70
2022/05/17 07:53:16;;;;;;;9.30;3.65;;;;;;;;;;4946179;28;20137;-68
2022/05/17 07:55:43;;;;;;;12.48;4.30;;;;;;;;;;4944217;28;20083;-69
2022/05/17 07:58:09;;;;;;;8.07;4.03;;;;;;;;;;4946143;28;20517;-69
2022/05/17 08:00:36;;;;;;;11.02;4.32;;;;;;;;;;4945892;28;20049;-69
2022/05/17 08:03:04;;;;;;;7.20;3.60;;;;;;;;;;4950363;28;20515;-72
2022/05/17 08:05:31;;;;;;;10.35;4.07;;;;;;;;;;4949949;28;20070;-70
2022/05/17 08:07:57;;;;;;;8.00;3.92;;;;;;;;;;4956636;28;20045;-69
2022/05/17 08:10:23;;;;;;;8.38;3.88;;;;;;;;;;4955324;28;20042;-70
2022/05/17 08:12:49;;;;;;;6.07;3.72;;;;;;;;;;4954235;28;20039;-69
2022/05/17 08:15:15;;;;;;;11.35;4.57;;;;;;;;;;4947520;28;20042;-69
2022/05/17 08:17:40;;;;;;;5.60;3.90;;;;;;;;;;4945981;28;20039;-69
2022/05/17 08:20:09;;;;;;;7.55;4.05;;;;;;;;;;4943594;28;20038;-69
2022/05/17 08:22:43;;;;;;;5.00;3.63;;;;;;;;;;4942936;28;20153;-69
2022/05/17 08:27:56;;;;;;;6.05;3.90;;;;;;;;;;4943682;28;20043;-70
2022/05/17 08:30:24;;;;;;;6.85;3.58;;;;;;;;;;4945731;28;20035;-70
2022/05/17 08:33:14;;;;;;;5.95;3.83;;;;;;;;;;4943009;28;20114;-70
2022/05/17 08:35:53;;;;;;;7.90;4.15;;;;;;;;;;4943464;28;20031;-69
2022/05/17 08:38:29;;;;;;;10.40;3.85;;;;;;;;;;4942893;28;20504;-69
2022/05/17 08:41:24;;;;;;;7.03;3.85;;;;;;;;;;4943250;28;20031;-70
2022/05/17 08:44:02;;;;;;;7.32;3.80;;;;;;;;;;4943044;28;20539;-69
2022/05/17 08:46:52;;;;;;;6.47;4.05;;;;;;;;;;4945193;28;20043;-70
2022/05/17 08:49:31;;;;;;;5.65;3.47;;;;;;;;;;4952128;28;20043;-67
2022/05/17 08:52:08;;;;;;;7.00;3.70;;;;;;;;;;4951276;28;20065;-67
2022/05/17 08:55:02;;;;;;;7.75;3.70;;;;;;;;;;4943383;28;20473;-70
2022/05/17 08:57:38;;;;;;;4.88;3.45;;;;;;;;;;4920251;28;20062;-68
2022/05/17 09:00:10;;;;;;;5.90;3.33;;;;;;;;;;4943858;28;20039;-68
2022/05/17 09:02:45;;;;;;;7.47;3.03;;;;;;;;;;4942308;28;20043;-69
2022/05/17 09:05:10;;;;;;;10.77;3.47;;;;;;;;;;4943041;28;20039;-68
2022/05/17 09:07:48;;;;;;;7.32;3.53;;;;;;;;;;4942704;28;20475;-67
2022/05/17 09:10:34;;;;;;;5.30;3.22;;;;;;;;;;4941671;28;20046;-67
2022/05/17 09:13:10;;;;;;;4.93;3.17;;;;;;;;;;4942468;28;20042;-67
2022/05/17 09:15:35;;;;;;;7.22;3.83;;;;;;;;;;4945197;28;20105;-68
2022/05/17 09:18:06;;;;;;;4.60;3.45;;;;;;;;;;4942855;28;20134;-67
2022/05/17 09:20:33;;;;;;;8.75;4.22;;;;;;;;;;4942883;28;20067;-67
2022/05/17 09:22:59;;;;;;;8.95;3.67;;;;;;;;;;4942304;28;20059;-67
2022/05/17 09:25:49;;;;;;;9.73;3.38;;;;;;;;;;4942310;28;20074;-67
2022/05/17 09:28:24;;;;;;;7.25;3.35;;;;;;;;;;4948285;28;20047;-67
2022/05/17 09:31:23;;;;;;;5.03;3.40;;;;;;;;;;4946640;28;20038;-67
2022/05/17 09:33:50;;;;;;;7.57;3.38;;;;;;;;;;4950773;28;20031;-67
2022/05/17 09:36:19;;;;;;;4.95;3.15;;;;;;;;;;4942666;28;20138;-67
2022/05/17 09:38:47;;;;;;;6.95;3.50;;;;;;;;;;4942702;28;20095;-67
2022/05/17 09:41:16;;;;;;;7.00;2.88;;;;;;;;;;4941897;28;20106;-67
2022/05/17 09:43:52;;;;;;;3.92;3.20;;;;;;;;;;4942668;28;20435;-67
2022/05/17 09:46:29;;;;;;;7.03;3.20;;;;;;;;;;4947389;28;20090;-67
2022/05/17 09:52:34;;;;;;;5.93;3.00;;;;;;;;;;4943356;28;20039;-67
2022/05/17 09:55:12;;;;;;;;;;;;;;;;;;4943884;28;20039;-68
2022/05/17 09:57:49;;;;;;;19.55;3.75;;;;;;;;;;4944914;28;19918;-68
2022/05/17 10:00:22;;;;;;;4.25;2.38;;;;;;;;;;4947362;28;20047;-70
2022/05/17 10:03:00;;;;;;;7.07;2.70;;;;;;;;;;4944716;28;20555;-70
2022/05/17 10:05:38;;;;;;;6.72;2.83;;;;;;;;;;4946756;28;20058;-69
2022/05/17 10:08:23;;;;;;;4.72;2.40;;;;;;;;;;4945566;28;20046;-69
2022/05/17 10:11:13;;;;;;;4.53;2.55;;;;;;;;;;4945523;28;20082;-70
2022/05/17 10:14:14;;;;;;;7.57;2.50;;;;;;;;;;4946359;28;20039;-68
2022/05/17 10:16:49;;;;;;;12.73;2.72;;;;;;;;;;4950406;28;20035;-69
2022/05/17 10:19:35;;;;;;;6.13;2.90;;;;;;;;;;4951654;28;20061;-69
2022/05/17 10:22:31;;;;;;;6.43;3.13;;;;;;;;;;4952870;28;20039;-69
2022/05/17 10:25:11;;;;;;;6.97;2.53;;;;;;;;;;4951763;28;20598;-68
2022/05/17 10:27:47;;;;;;;7.82;2.40;;;;;;;;;;4950493;28;20074;-68
2022/05/17 10:30:17;;;;;;;7.93;2.67;;;;;;;;;;4953230;28;20503;-68
2022/05/17 10:33:03;;;;;;;5.32;2.75;;;;;;;;;;4950237;28;20049;-68
2022/05/17 10:35:40;;;;;;;4.25;2.28;;;;;;;;;;4949897;28;20050;-68
2022/05/17 10:38:17;;;;;;;5.10;3.20;;;;;;;;;;4952172;28;20925;-68
2022/05/17 10:40:46;;;;;;;6.22;2.67;;;;;;;;;;4951210;28;20058;-68
2022/05/17 10:43:26;;;;;;;5.13;2.78;;;;;;;;;;4951337;28;20042;-68
2022/05/17 10:46:04;;;;;;;6.13;2.78;;;;;;;;;;4953059;28;20028;-68
2022/05/17 10:48:32;;;;;;;5.68;2.50;;;;;;;;;;4950236;28;20946;-69
2022/05/17 10:51:06;;;;;;;5.13;2.42;;;;;;;;;;4951965;28;20750;-68
2022/05/17 10:53:54;;;;;;;6.53;2.90;;;;;;;;;;4949462;28;20035;-69
2022/05/17 10:56:33;;;;;;;3.00;2.30;;;;;;;;;;4918149;28;20673;-68
2022/05/17 10:59:12;;;;;;;3.40;2.03;;;;;;;;;;4951859;28;20369;-68
2022/05/17 11:02:13;;;;;;;3.78;2.10;;;;;;;;;;4950469;28;20042;-68
2022/05/17 11:04:57;;;;;;;5.65;2.55;;;;;;;;;;4921082;28;20051;-69
2022/05/17 11:07:46;;;;;;;4.72;2.17;;;;;;;;;;4950905;28;20044;-68
2022/05/17 11:10:20;;;;;;;5.40;2.42;;;;;;;;;;4950580;28;20030;-70
2022/05/17 11:12:54;;;;;;;4.35;2.10;;;;;;;;;;4950458;28;20090;-69
2022/05/17 11:15:25;;;;;;;4.28;1.80;;;;;;;;;;4951251;28;20035;-69
2022/05/17 11:17:55;;;;;;;2.67;2.08;;;;;;;;;;4950574;28;20762;-69
2022/05/17 11:20:30;;;;;;;3.58;2.13;;;;;;;;;;4949373;28;20035;-70
2022/05/17 11:23:11;;;;;;;3.90;1.80;;;;;;;;;;4950240;28;20141;-69
2022/05/17 11:25:58;;;;;;;5.32;2.05;;;;;;;;;;4949502;28;20126;-70
2022/05/17 11:28:44;;;;;;;9.25;2.08;;;;;;;;;;4952520;28;20519;-69
2022/05/17 11:31:34;;;;;;;2.08;1.88;;;;;;;;;;4948114;28;20583;-69
2022/05/17 11:34:28;;;;;;;4.43;1.80;;;;;;;;;;4954135;28;20135;-69
2022/05/17 11:37:00;;;;;;;6.90;1.67;;;;;;;;;;4931034;28;20515;-69
2022/05/17 11:39:31;;;;;;;3.13;1.42;;;;;;;;;;4950012;28;20071;-69
2022/05/17 11:42:11;;;;;;;5.07;2.22;;;;;;;;;;4948425;28;20035;-69
2022/05/17 11:44:40;;;;;;;6.45;1.52;;;;;;;;;;4944063;28;20071;-69
2022/05/17 11:47:25;;;;;;;4.90;1.40;;;;;;;;;;4943982;28;20105;-69
2022/05/17 11:49:51;;;;;;;4.13;1.60;;;;;;;;;;4943235;28;20460;-69
2022/05/17 11:52:35;;;;;;;2.03;1.35;;;;;;;;;;4941421;28;20116;-69
2022/05/17 11:55:02;;;;;;;5.07;1.58;;;;;;;;;;4941556;28;20602;-69
2022/05/17 11:57:27;;;;;;;3.67;1.80;;;;;;;;;;4939091;28;20031;-69
2022/05/17 11:59:56;;;;;;;3.20;1.52;;;;;;;;;;4940293;28;20054;-69
2022/05/17 12:02:44;;;;;;;2.95;1.50;;;;;;;;;;4943921;28;20511;-69
2022/05/17 12:05:11;;;;;;;2.30;1.40;;;;;;;;;;4941787;28;20031;-69
2022/05/17 12:07:37;;;;;;;3.50;1.58;;;;;;;;;;4942800;28;20587;-69
2022/05/17 12:10:16;;;;;;;4.38;1.75;;;;;;;;;;4947613;28;20041;-69
2022/05/17 12:12:56;;;;;;;5.55;1.75;;;;;;;;;;4942497;28;20047;-70
2022/05/17 12:15:34;;;;;;;3.92;1.70;;;;;;;;;;4944174;28;20046;-70
2022/05/17 12:18:10;;;;;;;2.60;1.52;;;;;;;;;;4944405;28;20031;-70
2022/05/17 12:21:04;;;;;;;2.95;1.45;;;;;;;;;;4948759;28;20038;-71
2022/05/17 12:24:02;;;;;;;4.13;1.70;;;;;;;;;;4949434;28;20043;-70
2022/05/17 12:26:57;;;;;;;5.03;2.10;;;;;;;;;;4942563;28;20050;-70
2022/05/17 12:32:10;;;;;;;4.55;1.70;;;;;;;;;;4932848;28;20035;-69
2022/05/17 12:34:40;;;;;;;4.40;1.70;;;;;;;;;;4949035;28;20160;-69
2022/05/17 12:37:07;;;;;;;4.50;1.60;;;;;;;;;;4950516;28;20038;-69
2022/05/17 12:45:09;;;;;;;4.22;1.58;;;;;;;;;;4947528;28;20235;-69
2022/05/17 12:47:43;;;;;;;4.57;1.73;;;;;;;;;;4951636;28;20034;-69
2022/05/17 12:50:16;;;;;;;2.63;1.52;;;;;;;;;;4949256;28;20031;-69
2022/05/17 12:52:41;;;;;;;3.00;1.70;;;;;;;;;;4948041;28;20037;-70
2022/05/17 12:55:22;;;;;;;5.32;1.60;;;;;;;;;;4944168;28;20407;-70
2022/05/17 12:57:49;;;;;;;3.33;1.98;;;;;;;;;;4944517;28;20035;-70
2022/05/17 13:00:17;;;;;;;4.22;1.67;;;;;;;;;;4946400;28;20065;-71
2022/05/17 13:02:49;;;;;;;4.93;1.70;;;;;;;;;;4941821;28;20396;-72
2022/05/17 13:05:30;;;;;;;2.85;1.70;;;;;;;;;;4943596;28;20049;-71
2022/05/17 13:08:14;;;;;;;6.10;2.33;;;;;;;;;;4952002;28;20110;-70
2022/05/17 13:10:57;;;;;;;5.35;1.70;;;;;;;;;;4947939;28;20047;-70
2022/05/17 13:13:22;;;;;;;3.15;1.70;;;;;;;;;;4948733;28;20035;-71
2022/05/17 13:16:21;;;;;;;5.55;1.95;;;;;;;;;;4945738;28;20252;-71
2022/05/17 13:18:53;;;;;;;2.63;1.58;;;;;;;;;;4942646;28;20035;-70
2022/05/17 13:21:41;;;;;;;3.75;1.48;;;;;;;;;;4943397;28;20039;-69
2022/05/17 13:24:24;;;;;;;4.13;1.73;;;;;;;;;;4930487;28;20524;-70
2022/05/17 13:26:57;;;;;;;4.47;1.77;;;;;;;;;;4943143;28;20039;-70
2022/05/17 13:29:29;;;;;;;5.03;1.90;;;;;;;;;;4948844;28;20039;-69
2022/05/17 13:32:04;;;;;;;4.50;1.70;;;;;;;;;;4947652;28;20039;-70
2022/05/17 13:34:40;;;;;;;6.43;1.60;;;;;;;;;;4950145;28;20109;-70
2022/05/17 13:37:18;;;;;;;3.25;1.60;;;;;;;;;;4949241;28;20630;-70
2022/05/17 13:39:50;;;;;;;2.88;1.70;;;;;;;;;;4953404;28;20146;-69
2022/05/17 13:42:22;;;;;;;4.88;1.50;;;;;;;;;;4952167;28;20105;-69
2022/05/17 13:45:00;;;;;;;2.38;1.70;;;;;;;;;;4950306;28;20034;-69
2022/05/17 13:47:33;;;;;;;3.80;1.73;;;;;;;;;;4953421;28;20054;-69
2022/05/17 13:50:09;;;;;;;3.45;2.00;;;;;;;;;;4953695;28;20629;-69
2022/05/17 13:52:40;;;;;;;4.63;2.05;;;;;;;;;;4954358;28;20041;-69
2022/05/17 13:55:24;;;;;;;7.93;1.80;;;;;;;;;;4937292;28;20487;-69
2022/05/17 13:57:56;;;;;;;5.50;1.92;;;;;;;;;;4954656;28;20034;-69
2022/05/17 14:00:29;;;;;;;3.83;2.05;;;;;;;;;;4954704;28;20049;-69
2022/05/17 14:02:58;;;;;;;5.43;2.08;;;;;;;;;;4956986;28;20838;-69
2022/05/17 14:05:29;;;;;;;4.90;1.88;;;;;;;;;;4951892;28;20813;-69
2022/05/17 14:13:39;;;;;;;5.47;1.70;;;;;;;;;;4952352;28;20104;-69
2022/05/17 14:16:11;;;;;;;3.25;1.60;;;;;;;;;;4953721;28;20027;-70
2022/05/17 14:18:40;;;;;;;8.57;1.95;;;;;;;;;;4948790;28;20035;-70
2022/05/17 14:21:08;;;;;;;3.47;1.85;;;;;;;;;;4952894;28;20034;-70
2022/05/17 14:23:35;;;;;;;6.50;1.92;;;;;;;;;;4948973;28;20578;-70
2022/05/17 14:26:01;;;;;;;3.97;1.70;;;;;;;;;;4926198;28;20354;-69
2022/05/17 14:28:26;;;;;;;2.78;1.77;;;;;;;;;;4949575;28;22409;-70
2022/05/17 14:30:52;;;;;;;3.08;1.90;;;;;;;;;;4954041;28;20027;-70
2022/05/17 14:33:19;;;;;;;5.57;2.00;;;;;;;;;;4951964;28;20066;-70
2022/05/17 14:35:45;;;;;;;2.83;1.83;;;;;;;;;;4949465;28;20042;-70
2022/05/17 14:38:11;;;;;;;4.32;1.50;;;;;;;;;;4952310;28;20027;-70
2022/05/17 14:40:36;;;;;;;2.92;1.70;;;;;;;;;;4952659;28;20042;-70
2022/05/17 14:43:03;;;;;;;2.72;1.45;;;;;;;;;;4952086;28;20038;-71
2022/05/17 14:45:29;;;;;;;3.50;1.48;;;;;;;;;;4952760;28;20461;-70
2022/05/17 14:47:56;;;;;;;2.33;1.60;;;;;;;;;;4958778;28;20063;-70
2022/05/17 14:50:22;;;;;;;3.35;1.58;;;;;;;;;;4952029;28;20038;-70
2022/05/17 14:52:50;;;;;;;3.78;1.48;;;;;;;;;;4952232;28;20387;-70
2022/05/17 14:55:19;;;;;;;5.10;1.70;;;;;;;;;;4949168;28;20031;-70
2022/05/17 14:57:44;;;;;;;2.33;1.60;;;;;;;;;;4955181;28;20114;-70
2022/05/17 15:00:14;;;;;;;3.78;1.70;;;;;;;;;;4952423;28;20077;-70
2022/05/17 15:02:46;;;;;;;2.28;1.50;;;;;;;;;;4947403;28;20043;-70
2022/05/17 15:05:12;;;;;;;4.15;1.42;;;;;;;;;;4952075;28;20039;-70
2022/05/17 15:07:43;;;;;;;8.60;2.10;;;;;;;;;;4954936;28;20050;-71
2022/05/17 15:10:12;;;;;;;5.03;1.88;;;;;;;;;;4950756;28;20067;-70
2022/05/17 15:12:38;;;;;;;2.78;1.70;;;;;;;;;;4951531;28;20528;-70
2022/05/17 15:15:04;;;;;;;8.13;1.67;;;;;;;;;;4953876;28;20166;-69
2022/05/17 15:17:32;;;;;;;4.95;1.73;;;;;;;;;;4952402;28;20035;-69
2022/05/17 15:20:01;;;;;;;5.45;1.92;;;;;;;;;;4955234;28;20039;-69
2022/05/17 15:22:27;;;;;;;3.83;1.90;;;;;;;;;;4952584;28;20053;-69
2022/05/17 15:24:56;;;;;;;2.78;1.92;;;;;;;;;;4947676;28;20047;-70